sensor_id;sensor_type;location;lat;lon;timestamp;P1;durP1;ratioP1;P2;durP2;ratioP2
6434;SDS011;3250;42.694;23.278;2022-12-13T00:01:20;13.68;;;6.03;;
6434;SDS011;3250;42.694;23.278;2022-12-13T00:03:45;7.17;;;4.63;;
6434;SDS011;3250;42.694;23.278;2022-12-13T00:06:11;6.73;;;3.73;;
6434;SDS011;3250;42.694;23.278;2022-12-13T00:08:37;6.07;;;3.97;;
6434;SDS011;3250;42.694;23.278;2022-12-13T00:11:04;9.13;;;4.93;;
6434;SDS011;3250;42.694;23.278;2022-12-13T00:13:32;12.60;;;6.50;;
6434;SDS011;3250;42.694;23.278;2022-12-13T00:15:58;8.68;;;5.22;;
6434;SDS011;3250;42.694;23.278;2022-12-13T00:18:25;6.95;;;4.03;;
6434;SDS011;3250;42.694;23.278;2022-12-13T00:20:51;6.87;;;4.07;;
6434;SDS011;3250;42.694;23.278;2022-12-13T00:23:17;6.93;;;3.80;;
6434;SDS011;3250;42.694;23.278;2022-12-13T00:25:42;5.63;;;3.37;;
6434;SDS011;3250;42.694;23.278;2022-12-13T00:28:08;8.57;;;4.37;;
6434;SDS011;3250;42.694;23.278;2022-12-13T00:30:34;7.37;;;4.30;;
6434;SDS011;3250;42.694;23.278;2022-12-13T00:33:00;7.45;;;4.30;;
6434;SDS011;3250;42.694;23.278;2022-12-13T00:35:25;10.82;;;5.00;;
6434;SDS011;3250;42.694;23.278;2022-12-13T00:37:50;7.22;;;4.72;;
6434;SDS011;3250;42.694;23.278;2022-12-13T00:40:16;7.97;;;4.13;;
6434;SDS011;3250;42.694;23.278;2022-12-13T00:42:42;7.90;;;4.47;;
6434;SDS011;3250;42.694;23.278;2022-12-13T00:45:08;8.80;;;4.90;;
6434;SDS011;3250;42.694;23.278;2022-12-13T00:47:34;7.32;;;4.40;;
6434;SDS011;3250;42.694;23.278;2022-12-13T00:49:59;7.93;;;4.60;;
6434;SDS011;3250;42.694;23.278;2022-12-13T00:52:25;8.53;;;4.57;;
6434;SDS011;3250;42.694;23.278;2022-12-13T00:54:50;11.17;;;4.60;;
6434;SDS011;3250;42.694;23.278;2022-12-13T00:57:15;7.93;;;4.63;;
6434;SDS011;3250;42.694;23.278;2022-12-13T00:59:41;8.67;;;4.17;;
6434;SDS011;3250;42.694;23.278;2022-12-13T01:02:06;9.40;;;4.67;;
6434;SDS011;3250;42.694;23.278;2022-12-13T01:04:32;8.03;;;4.07;;
6434;SDS011;3250;42.694;23.278;2022-12-13T01:06:57;9.40;;;4.87;;
6434;SDS011;3250;42.694;23.278;2022-12-13T01:09:23;10.40;;;5.63;;
6434;SDS011;3250;42.694;23.278;2022-12-13T01:11:54;8.07;;;5.20;;
6434;SDS011;3250;42.694;23.278;2022-12-13T01:14:21;6.80;;;4.53;;
6434;SDS011;3250;42.694;23.278;2022-12-13T01:16:47;8.77;;;5.10;;
6434;SDS011;3250;42.694;23.278;2022-12-13T01:19:12;6.67;;;4.10;;
6434;SDS011;3250;42.694;23.278;2022-12-13T01:21:38;7.60;;;4.90;;
6434;SDS011;3250;42.694;23.278;2022-12-13T01:24:04;8.98;;;4.82;;
6434;SDS011;3250;42.694;23.278;2022-12-13T01:26:30;8.43;;;4.20;;
6434;SDS011;3250;42.694;23.278;2022-12-13T01:28:56;9.18;;;5.53;;
6434;SDS011;3250;42.694;23.278;2022-12-13T01:31:22;10.93;;;5.88;;
6434;SDS011;3250;42.694;23.278;2022-12-13T01:33:47;15.70;;;6.50;;
6434;SDS011;3250;42.694;23.278;2022-12-13T01:36:14;13.27;;;6.00;;
6434;SDS011;3250;42.694;23.278;2022-12-13T01:38:42;12.73;;;5.45;;
6434;SDS011;3250;42.694;23.278;2022-12-13T01:41:09;12.63;;;5.60;;
6434;SDS011;3250;42.694;23.278;2022-12-13T01:46:05;9.30;;;5.80;;
6434;SDS011;3250;42.694;23.278;2022-12-13T01:48:30;12.57;;;4.73;;
6434;SDS011;3250;42.694;23.278;2022-12-13T01:51:03;8.30;;;5.70;;
6434;SDS011;3250;42.694;23.278;2022-12-13T01:53:31;9.03;;;4.70;;
6434;SDS011;3250;42.694;23.278;2022-12-13T01:56:01;9.30;;;5.70;;
6434;SDS011;3250;42.694;23.278;2022-12-13T01:58:30;8.65;;;5.45;;
6434;SDS011;3250;42.694;23.278;2022-12-13T02:00:57;6.90;;;4.70;;
6434;SDS011;3250;42.694;23.278;2022-12-13T02:03:24;9.10;;;4.67;;
6434;SDS011;3250;42.694;23.278;2022-12-13T02:05:52;10.52;;;5.93;;
6434;SDS011;3250;42.694;23.278;2022-12-13T02:08:24;8.53;;;4.37;;
6434;SDS011;3250;42.694;23.278;2022-12-13T02:10:50;9.20;;;4.87;;
6434;SDS011;3250;42.694;23.278;2022-12-13T02:13:16;10.67;;;5.33;;
6434;SDS011;3250;42.694;23.278;2022-12-13T02:21:41;9.57;;;5.00;;
6434;SDS011;3250;42.694;23.278;2022-12-13T02:32:00;10.68;;;6.32;;
6434;SDS011;3250;42.694;23.278;2022-12-13T02:34:32;9.13;;;5.43;;
6434;SDS011;3250;42.694;23.278;2022-12-13T02:39:54;10.47;;;6.07;;
6434;SDS011;3250;42.694;23.278;2022-12-13T02:42:25;12.63;;;6.63;;
6434;SDS011;3250;42.694;23.278;2022-12-13T02:45:06;13.03;;;5.33;;
6434;SDS011;3250;42.694;23.278;2022-12-13T02:47:38;9.40;;;5.63;;
6434;SDS011;3250;42.694;23.278;2022-12-13T02:50:07;9.47;;;5.20;;
6434;SDS011;3250;42.694;23.278;2022-12-13T02:52:35;11.37;;;5.93;;
6434;SDS011;3250;42.694;23.278;2022-12-13T02:55:07;14.17;;;6.10;;
6434;SDS011;3250;42.694;23.278;2022-12-13T02:57:36;13.88;;;6.63;;
6434;SDS011;3250;42.694;23.278;2022-12-13T03:00:05;9.77;;;5.90;;
6434;SDS011;3250;42.694;23.278;2022-12-13T03:11:21;9.23;;;5.43;;
6434;SDS011;3250;42.694;23.278;2022-12-13T03:14:01;7.38;;;5.25;;
6434;SDS011;3250;42.694;23.278;2022-12-13T03:16:38;8.47;;;5.10;;
6434;SDS011;3250;42.694;23.278;2022-12-13T03:19:09;8.82;;;5.57;;
6434;SDS011;3250;42.694;23.278;2022-12-13T03:21:42;10.63;;;5.87;;
6434;SDS011;3250;42.694;23.278;2022-12-13T03:24:12;10.23;;;5.63;;
6434;SDS011;3250;42.694;23.278;2022-12-13T03:26:40;9.63;;;5.27;;
6434;SDS011;3250;42.694;23.278;2022-12-13T03:29:06;8.47;;;5.20;;
6434;SDS011;3250;42.694;23.278;2022-12-13T03:31:31;10.73;;;5.07;;
6434;SDS011;3250;42.694;23.278;2022-12-13T03:33:57;10.47;;;5.80;;
6434;SDS011;3250;42.694;23.278;2022-12-13T03:36:22;8.27;;;5.17;;
6434;SDS011;3250;42.694;23.278;2022-12-13T03:38:48;11.10;;;7.00;;
6434;SDS011;3250;42.694;23.278;2022-12-13T03:41:16;8.93;;;6.03;;
6434;SDS011;3250;42.694;23.278;2022-12-13T03:43:45;12.17;;;5.90;;
6434;SDS011;3250;42.694;23.278;2022-12-13T03:46:11;11.77;;;5.67;;
6434;SDS011;3250;42.694;23.278;2022-12-13T03:48:36;10.33;;;6.03;;
6434;SDS011;3250;42.694;23.278;2022-12-13T03:51:02;8.23;;;4.77;;
6434;SDS011;3250;42.694;23.278;2022-12-13T03:53:27;9.60;;;6.10;;
6434;SDS011;3250;42.694;23.278;2022-12-13T03:55:53;9.47;;;5.30;;
6434;SDS011;3250;42.694;23.278;2022-12-13T03:58:18;10.80;;;6.57;;
6434;SDS011;3250;42.694;23.278;2022-12-13T04:00:44;17.23;;;7.83;;
6434;SDS011;3250;42.694;23.278;2022-12-13T04:03:09;14.80;;;7.07;;
6434;SDS011;3250;42.694;23.278;2022-12-13T04:05:35;12.20;;;6.20;;
6434;SDS011;3250;42.694;23.278;2022-12-13T04:08:00;11.07;;;5.57;;
6434;SDS011;3250;42.694;23.278;2022-12-13T04:10:26;10.60;;;5.47;;
6434;SDS011;3250;42.694;23.278;2022-12-13T04:12:52;11.93;;;5.93;;
6434;SDS011;3250;42.694;23.278;2022-12-13T04:15:37;11.32;;;6.68;;
6434;SDS011;3250;42.694;23.278;2022-12-13T04:18:02;12.33;;;6.90;;
6434;SDS011;3250;42.694;23.278;2022-12-13T04:20:28;15.20;;;8.00;;
6434;SDS011;3250;42.694;23.278;2022-12-13T04:22:53;21.60;;;10.67;;
6434;SDS011;3250;42.694;23.278;2022-12-13T04:25:19;23.50;;;11.50;;
6434;SDS011;3250;42.694;23.278;2022-12-13T04:27:44;16.73;;;9.77;;
6434;SDS011;3250;42.694;23.278;2022-12-13T04:30:10;11.70;;;7.47;;
6434;SDS011;3250;42.694;23.278;2022-12-13T04:32:37;13.40;;;7.78;;
6434;SDS011;3250;42.694;23.278;2022-12-13T04:35:02;14.00;;;6.50;;
6434;SDS011;3250;42.694;23.278;2022-12-13T04:37:28;11.48;;;6.38;;
6434;SDS011;3250;42.694;23.278;2022-12-13T04:39:54;10.10;;;6.38;;
6434;SDS011;3250;42.694;23.278;2022-12-13T04:42:19;11.90;;;6.07;;
6434;SDS011;3250;42.694;23.278;2022-12-13T04:44:45;21.67;;;9.38;;
6434;SDS011;3250;42.694;23.278;2022-12-13T04:47:10;25.10;;;11.77;;
6434;SDS011;3250;42.694;23.278;2022-12-13T04:49:35;24.03;;;9.80;;
6434;SDS011;3250;42.694;23.278;2022-12-13T04:52:01;19.80;;;9.27;;
6434;SDS011;3250;42.694;23.278;2022-12-13T04:54:28;22.45;;;10.75;;
6434;SDS011;3250;42.694;23.278;2022-12-13T04:56:54;19.80;;;8.20;;
6434;SDS011;3250;42.694;23.278;2022-12-13T04:59:20;21.90;;;10.43;;
6434;SDS011;3250;42.694;23.278;2022-12-13T05:01:45;17.97;;;8.30;;
6434;SDS011;3250;42.694;23.278;2022-12-13T05:04:10;11.00;;;5.87;;
6434;SDS011;3250;42.694;23.278;2022-12-13T05:06:37;10.45;;;6.13;;
6434;SDS011;3250;42.694;23.278;2022-12-13T05:09:03;13.77;;;6.43;;
6434;SDS011;3250;42.694;23.278;2022-12-13T05:11:28;14.10;;;7.20;;
6434;SDS011;3250;42.694;23.278;2022-12-13T05:13:53;13.27;;;6.57;;
6434;SDS011;3250;42.694;23.278;2022-12-13T05:16:19;14.97;;;7.47;;
6434;SDS011;3250;42.694;23.278;2022-12-13T05:18:44;14.87;;;7.90;;
6434;SDS011;3250;42.694;23.278;2022-12-13T05:21:10;18.20;;;8.40;;
6434;SDS011;3250;42.694;23.278;2022-12-13T05:23:37;22.67;;;11.37;;
6434;SDS011;3250;42.694;23.278;2022-12-13T05:26:04;19.17;;;9.00;;
6434;SDS011;3250;42.694;23.278;2022-12-13T05:28:29;14.27;;;8.77;;
6434;SDS011;3250;42.694;23.278;2022-12-13T05:30:56;15.57;;;8.57;;
6434;SDS011;3250;42.694;23.278;2022-12-13T05:33:24;16.70;;;9.00;;
6434;SDS011;3250;42.694;23.278;2022-12-13T05:35:50;17.42;;;9.52;;
6434;SDS011;3250;42.694;23.278;2022-12-13T05:38:16;12.67;;;7.13;;
6434;SDS011;3250;42.694;23.278;2022-12-13T05:40:43;12.02;;;7.25;;
6434;SDS011;3250;42.694;23.278;2022-12-13T05:43:11;12.27;;;6.77;;
6434;SDS011;3250;42.694;23.278;2022-12-13T05:45:36;15.48;;;9.13;;
6434;SDS011;3250;42.694;23.278;2022-12-13T05:48:02;17.80;;;9.32;;
6434;SDS011;3250;42.694;23.278;2022-12-13T05:50:27;17.98;;;9.40;;
6434;SDS011;3250;42.694;23.278;2022-12-13T05:52:53;19.03;;;9.13;;
6434;SDS011;3250;42.694;23.278;2022-12-13T05:55:18;14.30;;;8.00;;
6434;SDS011;3250;42.694;23.278;2022-12-13T05:57:44;20.70;;;9.40;;
6434;SDS011;3250;42.694;23.278;2022-12-13T06:00:09;27.77;;;11.90;;
6434;SDS011;3250;42.694;23.278;2022-12-13T06:02:39;28.20;;;11.73;;
6434;SDS011;3250;42.694;23.278;2022-12-13T06:05:06;19.13;;;9.65;;
6434;SDS011;3250;42.694;23.278;2022-12-13T06:07:32;21.15;;;10.63;;
6434;SDS011;3250;42.694;23.278;2022-12-13T06:09:57;12.23;;;6.88;;
6434;SDS011;3250;42.694;23.278;2022-12-13T06:12:23;13.27;;;6.87;;
6434;SDS011;3250;42.694;23.278;2022-12-13T06:14:48;10.87;;;6.60;;
6434;SDS011;3250;42.694;23.278;2022-12-13T06:17:14;15.17;;;8.03;;
6434;SDS011;3250;42.694;23.278;2022-12-13T06:19:39;15.60;;;7.00;;
6434;SDS011;3250;42.694;23.278;2022-12-13T06:22:05;14.47;;;7.43;;
6434;SDS011;3250;42.694;23.278;2022-12-13T06:24:30;12.63;;;7.17;;
6434;SDS011;3250;42.694;23.278;2022-12-13T06:26:55;16.43;;;8.63;;
6434;SDS011;3250;42.694;23.278;2022-12-13T06:29:22;17.43;;;8.57;;
6434;SDS011;3250;42.694;23.278;2022-12-13T06:31:50;18.53;;;10.00;;
6434;SDS011;3250;42.694;23.278;2022-12-13T06:34:17;18.93;;;10.40;;
6434;SDS011;3250;42.694;23.278;2022-12-13T06:36:42;16.03;;;9.60;;
6434;SDS011;3250;42.694;23.278;2022-12-13T06:39:07;19.80;;;9.93;;
6434;SDS011;3250;42.694;23.278;2022-12-13T06:41:33;17.90;;;9.87;;
6434;SDS011;3250;42.694;23.278;2022-12-13T06:43:59;25.43;;;12.30;;
6434;SDS011;3250;42.694;23.278;2022-12-13T06:46:24;20.63;;;11.30;;
6434;SDS011;3250;42.694;23.278;2022-12-13T06:48:50;31.63;;;14.80;;
6434;SDS011;3250;42.694;23.278;2022-12-13T06:51:17;29.33;;;13.67;;
6434;SDS011;3250;42.694;23.278;2022-12-13T06:53:42;30.23;;;13.47;;
6434;SDS011;3250;42.694;23.278;2022-12-13T06:56:12;37.80;;;15.63;;
6434;SDS011;3250;42.694;23.278;2022-12-13T06:58:38;31.43;;;12.93;;
6434;SDS011;3250;42.694;23.278;2022-12-13T07:01:09;25.67;;;12.50;;
6434;SDS011;3250;42.694;23.278;2022-12-13T07:03:37;25.77;;;12.30;;
6434;SDS011;3250;42.694;23.278;2022-12-13T07:06:04;29.83;;;12.87;;
6434;SDS011;3250;42.694;23.278;2022-12-13T07:08:41;21.97;;;11.00;;
6434;SDS011;3250;42.694;23.278;2022-12-13T07:11:12;24.20;;;10.00;;
6434;SDS011;3250;42.694;23.278;2022-12-13T07:13:39;25.97;;;11.27;;
6434;SDS011;3250;42.694;23.278;2022-12-13T07:16:05;28.90;;;13.10;;
6434;SDS011;3250;42.694;23.278;2022-12-13T07:18:31;24.37;;;11.90;;
6434;SDS011;3250;42.694;23.278;2022-12-13T07:20:56;30.03;;;11.87;;
6434;SDS011;3250;42.694;23.278;2022-12-13T07:23:21;26.03;;;12.30;;
6434;SDS011;3250;42.694;23.278;2022-12-13T07:25:53;23.47;;;10.67;;
6434;SDS011;3250;42.694;23.278;2022-12-13T07:28:20;21.17;;;10.87;;
6434;SDS011;3250;42.694;23.278;2022-12-13T07:30:46;29.83;;;13.07;;
6434;SDS011;3250;42.694;23.278;2022-12-13T07:33:12;30.90;;;13.20;;
6434;SDS011;3250;42.694;23.278;2022-12-13T07:35:38;30.07;;;13.60;;
6434;SDS011;3250;42.694;23.278;2022-12-13T07:38:04;20.57;;;11.10;;
6434;SDS011;3250;42.694;23.278;2022-12-13T07:40:32;25.77;;;11.50;;
6434;SDS011;3250;42.694;23.278;2022-12-13T07:43:02;21.57;;;9.30;;
6434;SDS011;3250;42.694;23.278;2022-12-13T07:45:28;22.27;;;10.33;;
6434;SDS011;3250;42.694;23.278;2022-12-13T07:47:53;21.27;;;10.30;;
6434;SDS011;3250;42.694;23.278;2022-12-13T07:50:19;21.10;;;10.13;;
6434;SDS011;3250;42.694;23.278;2022-12-13T07:52:46;22.80;;;11.03;;
6434;SDS011;3250;42.694;23.278;2022-12-13T07:55:12;18.80;;;9.80;;
6434;SDS011;3250;42.694;23.278;2022-12-13T07:57:38;18.13;;;9.57;;
6434;SDS011;3250;42.694;23.278;2022-12-13T08:00:03;15.13;;;8.17;;
6434;SDS011;3250;42.694;23.278;2022-12-13T08:02:29;15.57;;;8.27;;
6434;SDS011;3250;42.694;23.278;2022-12-13T08:04:54;20.67;;;10.17;;
6434;SDS011;3250;42.694;23.278;2022-12-13T08:07:20;18.43;;;10.70;;
6434;SDS011;3250;42.694;23.278;2022-12-13T08:09:45;18.73;;;10.13;;
6434;SDS011;3250;42.694;23.278;2022-12-13T08:12:10;19.67;;;11.27;;
6434;SDS011;3250;42.694;23.278;2022-12-13T08:14:36;17.27;;;9.67;;
6434;SDS011;3250;42.694;23.278;2022-12-13T08:17:01;19.30;;;10.03;;
6434;SDS011;3250;42.694;23.278;2022-12-13T08:19:27;20.73;;;10.27;;
6434;SDS011;3250;42.694;23.278;2022-12-13T08:21:52;24.17;;;10.90;;
6434;SDS011;3250;42.694;23.278;2022-12-13T08:24:19;19.93;;;10.37;;
6434;SDS011;3250;42.694;23.278;2022-12-13T08:26:45;26.53;;;12.27;;
6434;SDS011;3250;42.694;23.278;2022-12-13T08:29:13;24.77;;;13.20;;
6434;SDS011;3250;42.694;23.278;2022-12-13T08:31:39;27.93;;;11.90;;
6434;SDS011;3250;42.694;23.278;2022-12-13T08:34:04;15.60;;;9.20;;
6434;SDS011;3250;42.694;23.278;2022-12-13T08:36:30;21.60;;;11.23;;
6434;SDS011;3250;42.694;23.278;2022-12-13T08:38:55;23.03;;;11.57;;
6434;SDS011;3250;42.694;23.278;2022-12-13T08:41:22;23.83;;;11.57;;
6434;SDS011;3250;42.694;23.278;2022-12-13T08:43:48;22.70;;;10.37;;
6434;SDS011;3250;42.694;23.278;2022-12-13T08:46:13;21.33;;;11.63;;
6434;SDS011;3250;42.694;23.278;2022-12-13T08:48:39;26.53;;;14.23;;
6434;SDS011;3250;42.694;23.278;2022-12-13T08:51:05;24.43;;;12.93;;
6434;SDS011;3250;42.694;23.278;2022-12-13T08:53:33;24.33;;;14.40;;
6434;SDS011;3250;42.694;23.278;2022-12-13T08:56:00;16.47;;;12.07;;
6434;SDS011;3250;42.694;23.278;2022-12-13T08:58:26;12.27;;;7.93;;
6434;SDS011;3250;42.694;23.278;2022-12-13T09:00:51;11.50;;;7.40;;
6434;SDS011;3250;42.694;23.278;2022-12-13T09:03:17;11.00;;;6.80;;
6434;SDS011;3250;42.694;23.278;2022-12-13T09:05:42;13.60;;;8.10;;
6434;SDS011;3250;42.694;23.278;2022-12-13T09:08:08;13.17;;;7.47;;
6434;SDS011;3250;42.694;23.278;2022-12-13T09:10:34;13.43;;;7.57;;
6434;SDS011;3250;42.694;23.278;2022-12-13T09:12:59;9.90;;;5.73;;
6434;SDS011;3250;42.694;23.278;2022-12-13T09:15:25;17.57;;;7.60;;
6434;SDS011;3250;42.694;23.278;2022-12-13T09:17:55;13.33;;;6.97;;
6434;SDS011;3250;42.694;23.278;2022-12-13T09:20:20;12.87;;;7.00;;
6434;SDS011;3250;42.694;23.278;2022-12-13T09:22:45;23.07;;;12.83;;
6434;SDS011;3250;42.694;23.278;2022-12-13T09:25:11;17.37;;;11.00;;
6434;SDS011;3250;42.694;23.278;2022-12-13T09:27:37;19.97;;;10.37;;
6434;SDS011;3250;42.694;23.278;2022-12-13T09:30:02;19.33;;;9.70;;
6434;SDS011;3250;42.694;23.278;2022-12-13T09:32:29;19.60;;;9.67;;
6434;SDS011;3250;42.694;23.278;2022-12-13T09:34:55;24.80;;;9.90;;
6434;SDS011;3250;42.694;23.278;2022-12-13T09:37:20;16.20;;;8.20;;
6434;SDS011;3250;42.694;23.278;2022-12-13T09:39:46;16.40;;;7.83;;
6434;SDS011;3250;42.694;23.278;2022-12-13T09:42:15;13.80;;;7.47;;
6434;SDS011;3250;42.694;23.278;2022-12-13T09:44:50;6.97;;;4.57;;
6434;SDS011;3250;42.694;23.278;2022-12-13T09:47:24;6.70;;;4.60;;
6434;SDS011;3250;42.694;23.278;2022-12-13T09:49:55;9.50;;;4.73;;
6434;SDS011;3250;42.694;23.278;2022-12-13T09:52:23;8.27;;;5.20;;
6434;SDS011;3250;42.694;23.278;2022-12-13T09:54:50;11.07;;;6.27;;
6434;SDS011;3250;42.694;23.278;2022-12-13T09:57:20;10.20;;;5.73;;
6434;SDS011;3250;42.694;23.278;2022-12-13T09:59:51;15.00;;;7.33;;
6434;SDS011;3250;42.694;23.278;2022-12-13T10:02:20;12.73;;;7.17;;
6434;SDS011;3250;42.694;23.278;2022-12-13T10:04:49;11.67;;;6.37;;
6434;SDS011;3250;42.694;23.278;2022-12-13T10:07:16;13.60;;;7.23;;
6434;SDS011;3250;42.694;23.278;2022-12-13T10:09:47;14.50;;;7.50;;
6434;SDS011;3250;42.694;23.278;2022-12-13T10:12:19;20.40;;;13.10;;
6434;SDS011;3250;42.694;23.278;2022-12-13T10:14:52;18.73;;;9.57;;
6434;SDS011;3250;42.694;23.278;2022-12-13T10:17:22;21.27;;;11.70;;
6434;SDS011;3250;42.694;23.278;2022-12-13T10:19:52;14.67;;;8.03;;
6434;SDS011;3250;42.694;23.278;2022-12-13T10:22:19;11.20;;;6.57;;
6434;SDS011;3250;42.694;23.278;2022-12-13T10:27:13;11.73;;;5.47;;
6434;SDS011;3250;42.694;23.278;2022-12-13T10:35:33;11.63;;;6.87;;
6434;SDS011;3250;42.694;23.278;2022-12-13T10:37:59;13.37;;;6.70;;
6434;SDS011;3250;42.694;23.278;2022-12-13T10:43:13;13.63;;;6.10;;
6434;SDS011;3250;42.694;23.278;2022-12-13T10:45:41;14.27;;;9.10;;
6434;SDS011;3250;42.694;23.278;2022-12-13T10:48:18;9.67;;;6.63;;
6434;SDS011;3250;42.694;23.278;2022-12-13T10:50:54;8.30;;;5.07;;
6434;SDS011;3250;42.694;23.278;2022-12-13T10:53:29;13.57;;;7.30;;
6434;SDS011;3250;42.694;23.278;2022-12-13T10:56:03;9.50;;;5.63;;
6434;SDS011;3250;42.694;23.278;2022-12-13T10:58:48;8.47;;;5.37;;
6434;SDS011;3250;42.694;23.278;2022-12-13T11:01:32;8.43;;;5.43;;
6434;SDS011;3250;42.694;23.278;2022-12-13T11:03:59;7.07;;;4.37;;
6434;SDS011;3250;42.694;23.278;2022-12-13T11:06:27;6.37;;;3.93;;
6434;SDS011;3250;42.694;23.278;2022-12-13T11:09:12;6.93;;;4.20;;
6434;SDS011;3250;42.694;23.278;2022-12-13T11:11:38;10.53;;;5.83;;
6434;SDS011;3250;42.694;23.278;2022-12-13T11:14:03;12.83;;;6.13;;
6434;SDS011;3250;42.694;23.278;2022-12-13T11:16:30;15.23;;;7.57;;
6434;SDS011;3250;42.694;23.278;2022-12-13T11:19:15;16.03;;;8.13;;
6434;SDS011;3250;42.694;23.278;2022-12-13T11:21:48;20.00;;;7.40;;
6434;SDS011;3250;42.694;23.278;2022-12-13T11:24:27;13.10;;;6.33;;
6434;SDS011;3250;42.694;23.278;2022-12-13T11:30:11;10.07;;;5.87;;
6434;SDS011;3250;42.694;23.278;2022-12-13T11:32:49;7.80;;;4.63;;
6434;SDS011;3250;42.694;23.278;2022-12-13T11:41:14;6.50;;;4.23;;
6434;SDS011;3250;42.694;23.278;2022-12-13T11:43:50;9.40;;;5.27;;
6434;SDS011;3250;42.694;23.278;2022-12-13T11:46:21;9.57;;;6.67;;
6434;SDS011;3250;42.694;23.278;2022-12-13T11:49:01;8.07;;;4.77;;
6434;SDS011;3250;42.694;23.278;2022-12-13T11:51:39;13.90;;;6.73;;
6434;SDS011;3250;42.694;23.278;2022-12-13T11:54:13;11.80;;;6.23;;
6434;SDS011;3250;42.694;23.278;2022-12-13T11:56:44;14.63;;;7.03;;
6434;SDS011;3250;42.694;23.278;2022-12-13T11:59:23;15.43;;;8.27;;
6434;SDS011;3250;42.694;23.278;2022-12-13T12:02:18;15.70;;;7.60;;
6434;SDS011;3250;42.694;23.278;2022-12-13T12:04:51;13.13;;;7.37;;
6434;SDS011;3250;42.694;23.278;2022-12-13T12:07:38;14.00;;;7.90;;
6434;SDS011;3250;42.694;23.278;2022-12-13T12:13:27;17.53;;;8.17;;
6434;SDS011;3250;42.694;23.278;2022-12-13T12:18:38;13.20;;;6.43;;
6434;SDS011;3250;42.694;23.278;2022-12-13T12:26:47;12.60;;;6.97;;
6434;SDS011;3250;42.694;23.278;2022-12-13T12:29:33;11.60;;;6.23;;
6434;SDS011;3250;42.694;23.278;2022-12-13T12:32:31;13.93;;;6.03;;
6434;SDS011;3250;42.694;23.278;2022-12-13T12:37:51;14.50;;;7.30;;
6434;SDS011;3250;42.694;23.278;2022-12-13T12:43:31;9.37;;;6.10;;
6434;SDS011;3250;42.694;23.278;2022-12-13T12:51:14;18.50;;;7.87;;
6434;SDS011;3250;42.694;23.278;2022-12-13T12:56:46;23.67;;;11.87;;
6434;SDS011;3250;42.694;23.278;2022-12-13T12:59:25;18.93;;;8.43;;
6434;SDS011;3250;42.694;23.278;2022-12-13T13:04:59;16.37;;;7.77;;
6434;SDS011;3250;42.694;23.278;2022-12-13T13:07:37;16.57;;;8.23;;
6434;SDS011;3250;42.694;23.278;2022-12-13T13:10:08;12.63;;;6.93;;
6434;SDS011;3250;42.694;23.278;2022-12-13T13:12:36;16.97;;;8.50;;
6434;SDS011;3250;42.694;23.278;2022-12-13T13:17:57;21.80;;;11.17;;
6434;SDS011;3250;42.694;23.278;2022-12-13T13:20:25;19.07;;;9.23;;
6434;SDS011;3250;42.694;23.278;2022-12-13T13:22:52;17.07;;;8.33;;
6434;SDS011;3250;42.694;23.278;2022-12-13T13:28:09;15.13;;;8.20;;
6434;SDS011;3250;42.694;23.278;2022-12-13T13:31:00;18.47;;;9.50;;
6434;SDS011;3250;42.694;23.278;2022-12-13T13:33:46;18.23;;;9.00;;
6434;SDS011;3250;42.694;23.278;2022-12-13T13:39:07;16.00;;;7.27;;
6434;SDS011;3250;42.694;23.278;2022-12-13T13:44:31;16.33;;;8.20;;
6434;SDS011;3250;42.694;23.278;2022-12-13T14:01:04;14.53;;;8.77;;
6434;SDS011;3250;42.694;23.278;2022-12-13T14:23:29;23.67;;;11.63;;
6434;SDS011;3250;42.694;23.278;2022-12-13T14:34:02;18.67;;;9.87;;
6434;SDS011;3250;42.694;23.278;2022-12-13T14:36:33;19.73;;;9.17;;
6434;SDS011;3250;42.694;23.278;2022-12-13T14:41:45;20.90;;;11.77;;
6434;SDS011;3250;42.694;23.278;2022-12-13T14:44:12;24.17;;;12.60;;
6434;SDS011;3250;42.694;23.278;2022-12-13T14:46:51;33.60;;;19.57;;
6434;SDS011;3250;42.694;23.278;2022-12-13T14:49:19;45.47;;;24.60;;
6434;SDS011;3250;42.694;23.278;2022-12-13T14:51:46;61.20;;;26.60;;
6434;SDS011;3250;42.694;23.278;2022-12-13T14:54:18;64.30;;;35.37;;
6434;SDS011;3250;42.694;23.278;2022-12-13T14:57:21;78.43;;;39.60;;
6434;SDS011;3250;42.694;23.278;2022-12-13T14:59:50;70.37;;;35.20;;
6434;SDS011;3250;42.694;23.278;2022-12-13T15:02:18;74.60;;;37.23;;
6434;SDS011;3250;42.694;23.278;2022-12-13T15:04:51;74.67;;;33.93;;
6434;SDS011;3250;42.694;23.278;2022-12-13T15:09:54;69.87;;;34.70;;
6434;SDS011;3250;42.694;23.278;2022-12-13T15:12:21;65.63;;;33.07;;
6434;SDS011;3250;42.694;23.278;2022-12-13T15:15:16;64.17;;;29.60;;
6434;SDS011;3250;42.694;23.278;2022-12-13T15:17:44;55.30;;;27.10;;
6434;SDS011;3250;42.694;23.278;2022-12-13T15:20:24;54.47;;;25.43;;
6434;SDS011;3250;42.694;23.278;2022-12-13T15:23:37;51.50;;;24.27;;
6434;SDS011;3250;42.694;23.278;2022-12-13T15:25:42;48.87;;;25.63;;
6434;SDS011;3250;42.694;23.278;2022-12-13T15:28:13;53.50;;;23.47;;
6434;SDS011;3250;42.694;23.278;2022-12-13T15:30:39;69.97;;;26.67;;
6434;SDS011;3250;42.694;23.278;2022-12-13T15:33:06;83.43;;;31.57;;
6434;SDS011;3250;42.694;23.278;2022-12-13T15:35:45;55.77;;;23.33;;
6434;SDS011;3250;42.694;23.278;2022-12-13T15:38:12;47.67;;;23.20;;
6434;SDS011;3250;42.694;23.278;2022-12-13T15:40:47;47.87;;;22.27;;
6434;SDS011;3250;42.694;23.278;2022-12-13T15:43:14;54.83;;;23.40;;
6434;SDS011;3250;42.694;23.278;2022-12-13T15:45:43;60.87;;;30.70;;
6434;SDS011;3250;42.694;23.278;2022-12-13T15:48:21;73.37;;;33.20;;
6434;SDS011;3250;42.694;23.278;2022-12-13T15:53:36;117.47;;;52.87;;
6434;SDS011;3250;42.694;23.278;2022-12-13T15:56:25;117.00;;;50.20;;
6434;SDS011;3250;42.694;23.278;2022-12-13T15:58:52;104.60;;;49.30;;
6434;SDS011;3250;42.694;23.278;2022-12-13T16:01:25;111.53;;;49.87;;
6434;SDS011;3250;42.694;23.278;2022-12-13T16:03:52;113.17;;;53.33;;
6434;SDS011;3250;42.694;23.278;2022-12-13T16:06:18;130.20;;;53.47;;
6434;SDS011;3250;42.694;23.278;2022-12-13T16:08:47;124.67;;;53.73;;
6434;SDS011;3250;42.694;23.278;2022-12-13T16:11:15;184.10;;;82.03;;
6434;SDS011;3250;42.694;23.278;2022-12-13T16:16:57;167.40;;;73.33;;
6434;SDS011;3250;42.694;23.278;2022-12-13T16:19:30;170.97;;;72.10;;
6434;SDS011;3250;42.694;23.278;2022-12-13T16:21:56;152.20;;;71.80;;
6434;SDS011;3250;42.694;23.278;2022-12-13T16:24:21;168.87;;;74.00;;
6434;SDS011;3250;42.694;23.278;2022-12-13T16:26:47;158.10;;;69.67;;
6434;SDS011;3250;42.694;23.278;2022-12-13T16:29:14;152.07;;;69.00;;
6434;SDS011;3250;42.694;23.278;2022-12-13T16:31:41;153.33;;;67.47;;
6434;SDS011;3250;42.694;23.278;2022-12-13T16:34:11;159.80;;;71.13;;
6434;SDS011;3250;42.694;23.278;2022-12-13T16:36:37;210.87;;;90.33;;
6434;SDS011;3250;42.694;23.278;2022-12-13T16:39:03;244.80;;;102.40;;
6434;SDS011;3250;42.694;23.278;2022-12-13T16:41:30;239.43;;;101.40;;
6434;SDS011;3250;42.694;23.278;2022-12-13T16:44:01;242.03;;;103.47;;
6434;SDS011;3250;42.694;23.278;2022-12-13T16:46:27;183.47;;;85.27;;
6434;SDS011;3250;42.694;23.278;2022-12-13T16:48:53;141.97;;;58.07;;
6434;SDS011;3250;42.694;23.278;2022-12-13T16:51:18;130.85;;;58.95;;
6434;SDS011;3250;42.694;23.278;2022-12-13T16:53:45;128.13;;;57.10;;
6434;SDS011;3250;42.694;23.278;2022-12-13T16:56:10;121.27;;;55.20;;
6434;SDS011;3250;42.694;23.278;2022-12-13T16:58:38;113.63;;;52.03;;
6434;SDS011;3250;42.694;23.278;2022-12-13T17:01:11;118.80;;;50.87;;
6434;SDS011;3250;42.694;23.278;2022-12-13T17:03:39;155.60;;;76.87;;
6434;SDS011;3250;42.694;23.278;2022-12-13T17:06:05;383.97;;;187.23;;
6434;SDS011;3250;42.694;23.278;2022-12-13T17:08:32;448.47;;;239.07;;
6434;SDS011;3250;42.694;23.278;2022-12-13T17:10:58;455.93;;;236.70;;
6434;SDS011;3250;42.694;23.278;2022-12-13T17:13:24;470.93;;;249.47;;
6434;SDS011;3250;42.694;23.278;2022-12-13T17:15:50;320.27;;;137.10;;